createdAt,value
2022-11-15T00:00:14.950Z,25.25
2022-11-15T00:05:36.900Z,25.63
2022-11-15T00:11:01.834Z,31.30
2022-11-15T00:16:21.950Z,28.27
2022-11-15T00:21:42.425Z,25.48
2022-11-15T00:27:05.458Z,29.10
2022-11-15T00:37:53.618Z,25.98
2022-11-15T00:43:13.959Z,27.02
2022-11-15T00:48:34.284Z,28.67
2022-11-15T00:53:54.490Z,29.10
2022-11-15T00:59:14.778Z,25.55
2022-11-15T01:04:34.925Z,24.70
2022-11-15T01:09:55.179Z,27.73
2022-11-15T01:15:15.561Z,26.27
2022-11-15T01:20:40.576Z,25.33
2022-11-15T01:26:01.761Z,29.50
2022-11-15T01:31:22.265Z,25.52
2022-11-15T01:36:42.558Z,28.92
2022-11-15T01:42:03.334Z,26.65
2022-11-15T01:47:27.217Z,28.50
2022-11-15T01:52:47.499Z,30.23
2022-11-15T01:58:08.294Z,26.75
2022-11-15T02:03:36.585Z,28.08
2022-11-15T02:08:57.527Z,24.10
2022-11-15T02:14:19.395Z,26.13
2022-11-15T02:19:48.823Z,27.02
2022-11-15T02:25:30.404Z,27.50
2022-11-15T02:31:11.069Z,27.15
2022-11-15T02:37:00.520Z,25.70
2022-11-15T02:42:48.962Z,25.52
2022-11-15T02:48:11.193Z,25.08
2022-11-15T02:53:31.677Z,26.00
2022-11-15T02:59:21.005Z,28.25
2022-11-15T03:04:59.168Z,24.40
2022-11-15T03:10:24.437Z,24.90
2022-11-15T03:15:54.955Z,27.40
2022-11-15T03:21:16.751Z,24.70
2022-11-15T03:26:39.569Z,24.98
2022-11-15T03:32:07.065Z,27.30
2022-11-15T03:38:06.251Z,24.65
2022-11-15T03:43:41.661Z,24.48
2022-11-15T03:49:08.625Z,26.02
2022-11-15T03:54:28.760Z,27.13
2022-11-15T03:59:49.233Z,26.55
2022-11-15T04:05:09.210Z,26.52
2022-11-15T04:10:29.474Z,24.65
2022-11-15T04:15:50.247Z,24.50
2022-11-15T04:21:29.067Z,24.40
2022-11-15T04:26:49.403Z,26.42
2022-11-15T04:32:09.726Z,26.23
2022-11-15T04:37:30.122Z,24.52
2022-11-15T04:42:50.731Z,24.02
2022-11-15T04:48:10.849Z,23.55
2022-11-15T04:53:31.342Z,23.63
2022-11-15T04:58:51.844Z,25.13
2022-11-15T05:04:21.195Z,24.88
2022-11-15T05:09:41.284Z,23.48
2022-11-15T05:15:01.600Z,23.10
2022-11-15T05:20:21.792Z,24.30
2022-11-15T05:25:42.252Z,25.20
2022-11-15T05:31:03.836Z,24.05
2022-11-15T05:36:26.804Z,22.95
2022-11-15T05:41:51.260Z,22.60
2022-11-15T05:47:15.468Z,19.85
2022-11-15T05:52:37.522Z,23.67
2022-11-15T05:57:57.568Z,24.65
2022-11-15T06:03:17.854Z,22.95
2022-11-15T06:08:38.286Z,24.40
2022-11-15T06:13:58.437Z,23.92
2022-11-15T06:19:18.803Z,22.17
2022-11-15T06:24:38.905Z,23.70
2022-11-15T06:29:59.288Z,22.45
2022-11-15T06:35:19.588Z,25.63
2022-11-15T06:40:40.427Z,22.33
2022-11-15T06:46:01.593Z,23.13
2022-11-15T06:51:21.733Z,24.05
2022-11-15T06:56:41.958Z,20.98
2022-11-15T07:02:02.382Z,24.42
2022-11-15T07:07:22.695Z,23.02
2022-11-15T07:12:42.977Z,21.58
2022-11-15T07:18:03.492Z,19.80
2022-11-15T07:23:23.580Z,21.48
2022-11-15T07:28:43.808Z,19.90
2022-11-15T07:34:04.034Z,22.42
2022-11-15T07:39:24.375Z,21.35
2022-11-15T07:44:44.489Z,21.23
2022-11-15T07:50:05.400Z,19.92
2022-11-15T07:55:28.058Z,19.98
2022-11-15T08:00:48.146Z,20.55
2022-11-15T08:06:08.321Z,19.10
2022-11-15T08:11:28.767Z,22.83
2022-11-15T08:16:49.454Z,20.25
2022-11-15T08:22:09.496Z,18.55
2022-11-15T08:27:29.757Z,19.42
2022-11-15T08:32:50.693Z,16.88
2022-11-15T08:38:11.144Z,16.63
2022-11-15T08:43:31.836Z,17.35
2022-11-15T08:48:52.223Z,16.20
2022-11-15T08:54:12.723Z,16.27
2022-11-15T08:59:32.994Z,16.90
2022-11-15T09:04:53.257Z,15.02
2022-11-15T09:10:13.585Z,15.13
2022-11-15T09:15:33.990Z,15.20
2022-11-15T09:20:58.664Z,15.02
2022-11-15T09:26:19.193Z,15.63
2022-11-15T09:31:40.078Z,15.68
2022-11-15T09:37:00.385Z,16.50
2022-11-15T09:42:52.983Z,15.73
2022-11-15T09:48:25.464Z,14.07
2022-11-15T10:00:23.745Z,14.55
2022-11-15T10:05:25.220Z,15.85
2022-11-15T10:10:40.740Z,15.85
2022-11-15T10:15:46.307Z,14.75
2022-11-15T10:20:56.593Z,15.70
2022-11-15T10:26:06.380Z,13.10
2022-11-15T10:31:26.864Z,13.30
2022-11-15T10:36:29.532Z,13.88
2022-11-15T10:41:35.647Z,13.10
2022-11-15T10:46:48.361Z,11.65
2022-11-15T10:51:54.537Z,12.18
2022-11-15T10:56:58.964Z,12.48
2022-11-15T11:02:00.851Z,13.60
2022-11-15T11:07:02.528Z,14.20
2022-11-15T11:12:06.284Z,13.00
2022-11-15T11:17:23.422Z,13.95
2022-11-15T11:22:35.908Z,12.07
2022-11-15T11:27:43.190Z,15.13
2022-11-15T11:32:59.415Z,11.48
2022-11-15T11:38:33.826Z,12.77
2022-11-15T11:43:38.297Z,12.40
2022-11-15T11:49:20.193Z,12.68
2022-11-15T11:54:42.995Z,12.07
2022-11-15T12:00:07.666Z,10.45
2022-11-15T12:05:24.224Z,11.68
2022-11-15T12:10:30.628Z,11.73
2022-11-15T12:15:48.954Z,13.23
2022-11-15T12:21:02.220Z,11.02
2022-11-15T12:26:06.952Z,11.07
2022-11-15T12:31:29.709Z,12.63
2022-11-15T12:36:51.235Z,12.10
2022-11-15T12:41:55.812Z,11.93
2022-11-15T12:46:57.379Z,13.52
2022-11-15T12:51:58.907Z,11.88
2022-11-15T12:57:09.356Z,12.02
2022-11-15T13:02:19.571Z,10.70
2022-11-15T13:07:50.265Z,13.25
2022-11-15T13:12:54.663Z,12.05
2022-11-15T13:17:57.274Z,13.20
2022-11-15T13:23:16.710Z,11.48
2022-11-15T13:28:20.488Z,11.60
2022-11-15T13:33:26.097Z,11.82
2022-11-15T13:38:34.509Z,11.43
2022-11-15T13:43:36.996Z,12.77
2022-11-15T13:48:39.334Z,12.05
2022-11-15T13:53:47.639Z,11.85
2022-11-15T13:58:49.447Z,13.15
2022-11-15T14:03:59.862Z,14.77
2022-11-15T14:09:33.871Z,12.75
2022-11-15T14:14:46.095Z,12.52
2022-11-15T14:19:47.772Z,11.40
2022-11-15T14:25:13.784Z,11.65
2022-11-15T14:30:18.656Z,12.93
2022-11-15T14:35:23.062Z,12.90
2022-11-15T14:40:24.661Z,13.20
2022-11-15T14:45:28.371Z,14.07
2022-11-15T14:50:30.208Z,13.25
2022-11-15T14:55:37.249Z,13.35
2022-11-15T15:00:41.569Z,12.77
2022-11-15T15:05:44.576Z,14.13
2022-11-15T15:10:46.968Z,14.90
2022-11-15T15:15:49.631Z,13.80
2022-11-15T15:21:07.920Z,13.07
2022-11-15T15:26:10.379Z,13.43
2022-11-15T15:31:12.269Z,14.18
2022-11-15T15:36:15.382Z,15.80
2022-11-15T15:41:17.893Z,15.15
2022-11-15T15:46:20.811Z,12.85
2022-11-15T15:51:22.471Z,13.32
2022-11-15T15:56:24.422Z,13.40
2022-11-15T16:01:26.264Z,15.38
2022-11-15T16:06:39.152Z,16.45
2022-11-15T16:11:41.042Z,13.98
2022-11-15T16:16:42.623Z,18.77
2022-11-15T16:21:44.331Z,15.10
2022-11-15T16:26:46.653Z,15.93
2022-11-15T16:31:48.266Z,14.77
2022-11-15T16:36:50.037Z,15.70
2022-11-15T16:41:51.683Z,16.75
2022-11-15T16:46:53.425Z,16.05
2022-11-15T16:51:55.069Z,15.35
2022-11-15T16:56:56.757Z,16.70
2022-11-15T17:01:58.378Z,13.00
2022-11-15T17:07:00.367Z,15.75
2022-11-15T17:12:02.074Z,13.50
2022-11-15T17:17:04.165Z,17.42
2022-11-15T17:22:05.825Z,17.45
2022-11-15T17:27:07.604Z,16.25
2022-11-15T17:32:09.517Z,16.75
2022-11-15T17:37:11.164Z,16.52
2022-11-15T17:42:12.845Z,15.38
2022-11-15T17:47:14.538Z,17.25
2022-11-15T17:52:16.278Z,15.27
2022-11-15T17:57:17.976Z,14.60
2022-11-15T18:02:19.670Z,16.98
2022-11-15T18:07:21.337Z,18.05
2022-11-15T18:12:23.016Z,14.93
2022-11-15T18:17:24.737Z,17.42
2022-11-15T18:22:26.361Z,15.57
2022-11-15T18:27:28.073Z,15.40
2022-11-15T18:32:29.696Z,16.30
2022-11-15T18:37:31.301Z,14.98
2022-11-15T18:42:33.042Z,13.10
2022-11-15T18:47:34.805Z,14.07
2022-11-15T18:52:36.484Z,15.50
2022-11-15T18:57:38.119Z,15.82
2022-11-15T19:02:39.719Z,13.77
2022-11-15T19:07:41.522Z,16.15
2022-11-15T19:12:43.702Z,17.23
2022-11-15T19:17:45.527Z,14.77
2022-11-15T19:22:47.117Z,12.68
2022-11-15T19:27:48.950Z,12.73
2022-11-15T19:32:50.557Z,14.93
2022-11-15T19:37:52.148Z,13.27
2022-11-15T19:42:53.780Z,13.93
2022-11-15T19:47:55.434Z,13.15
2022-11-15T19:52:57.013Z,15.10
2022-11-15T19:57:58.641Z,11.88
2022-11-15T20:03:00.244Z,13.88
2022-11-15T20:08:01.842Z,14.98
2022-11-15T20:13:03.443Z,12.60
2022-11-15T20:18:05.217Z,12.25
2022-11-15T20:23:06.861Z,10.95
2022-11-15T20:28:11.387Z,11.77
2022-11-15T20:33:14.840Z,12.05
2022-11-15T20:38:16.644Z,13.07
2022-11-15T20:43:19.627Z,9.32
2022-11-15T20:48:21.581Z,10.55
2022-11-15T20:53:24.316Z,12.63
2022-11-15T20:58:30.302Z,12.98
2022-11-15T21:03:32.333Z,10.43
2022-11-15T21:08:53.919Z,11.40
2022-11-15T21:13:55.526Z,10.05
2022-11-15T21:18:57.204Z,12.07
2022-11-15T21:23:58.808Z,10.65
2022-11-15T21:29:02.079Z,11.98
2022-11-15T21:34:04.033Z,11.75
2022-11-15T21:39:05.685Z,11.40
2022-11-15T21:44:07.357Z,11.30
2022-11-15T21:49:09.041Z,10.80
2022-11-15T21:54:10.760Z,10.85
2022-11-15T21:59:12.390Z,8.77
2022-11-15T22:04:14.775Z,11.85
2022-11-15T22:09:16.578Z,9.80
2022-11-15T22:14:18.235Z,8.85
2022-11-15T22:19:19.920Z,9.60
2022-11-15T22:24:22.423Z,8.80
2022-11-15T22:29:24.566Z,12.05
2022-11-15T22:34:26.284Z,10.82
2022-11-15T22:39:27.966Z,11.77
2022-11-15T22:44:29.641Z,9.52
2022-11-15T22:49:31.317Z,9.57
2022-11-15T22:54:33.146Z,9.60
2022-11-15T22:59:37.105Z,9.05
2022-11-15T23:04:38.833Z,8.25
2022-11-15T23:09:40.517Z,9.73
2022-11-15T23:14:42.277Z,8.38
2022-11-15T23:19:43.932Z,8.30
2022-11-15T23:24:45.651Z,9.77
2022-11-15T23:30:06.040Z,11.63
2022-11-15T23:35:08.040Z,9.13
2022-11-15T23:40:10.502Z,8.40
2022-11-15T23:45:12.176Z,8.82
2022-11-15T23:50:13.945Z,7.55
2022-11-15T23:55:15.674Z,9.25
